sensor_id;sensor_type;location;lat;lon;timestamp;temperature;humidity
22676;DHT22;12521;43.310;21.876;2022-07-29T00:03:25;22.6;96.0
22676;DHT22;12521;43.310;21.876;2022-07-29T00:08:03;22.5;96.0
22676;DHT22;12521;43.310;21.876;2022-07-29T00:12:39;22.5;96.0
22676;DHT22;12521;43.310;21.876;2022-07-29T00:17:16;22.4;96.0
22676;DHT22;12521;43.310;21.876;2022-07-29T00:21:52;22.4;96.0
22676;DHT22;12521;43.310;21.876;2022-07-29T00:26:28;22.4;96.0
22676;DHT22;12521;43.310;21.876;2022-07-29T00:31:04;22.4;96.0
22676;DHT22;12521;43.310;21.876;2022-07-29T00:35:40;22.4;96.0
22676;DHT22;12521;43.310;21.876;2022-07-29T00:40:17;22.3;96.0
22676;DHT22;12521;43.310;21.876;2022-07-29T00:44:53;22.3;96.0
22676;DHT22;12521;43.310;21.876;2022-07-29T00:49:30;22.4;96.0
22676;DHT22;12521;43.310;21.876;2022-07-29T00:54:07;22.4;96.0
22676;DHT22;12521;43.310;21.876;2022-07-29T00:58:45;22.4;96.0
22676;DHT22;12521;43.310;21.876;2022-07-29T01:03:28;22.4;96.0
22676;DHT22;12521;43.310;21.876;2022-07-29T01:08:05;22.3;96.0
22676;DHT22;12521;43.310;21.876;2022-07-29T01:12:46;22.3;96.0
22676;DHT22;12521;43.310;21.876;2022-07-29T01:17:36;22.2;96.0
22676;DHT22;12521;43.310;21.876;2022-07-29T01:23:04;22.2;96.0
22676;DHT22;12521;43.310;21.876;2022-07-29T01:28:57;22.2;96.0
22676;DHT22;12521;43.310;21.876;2022-07-29T01:34:03;22.2;96.0
22676;DHT22;12521;43.310;21.876;2022-07-29T01:39:10;22.1;96.0
22676;DHT22;12521;43.310;21.876;2022-07-29T01:44:17;22.1;96.0
22676;DHT22;12521;43.310;21.876;2022-07-29T01:49:24;22.0;96.0
22676;DHT22;12521;43.310;21.876;2022-07-29T01:54:30;22.0;96.0
22676;DHT22;12521;43.310;21.876;2022-07-29T01:59:41;21.9;96.0
22676;DHT22;12521;43.310;21.876;2022-07-29T02:04:35;21.9;96.0
22676;DHT22;12521;43.310;21.876;2022-07-29T02:09:29;21.9;96.0
22676;DHT22;12521;43.310;21.876;2022-07-29T02:14:24;21.9;96.0
22676;DHT22;12521;43.310;21.876;2022-07-29T02:19:29;21.9;96.0
22676;DHT22;12521;43.310;21.876;2022-07-29T02:24:23;21.9;96.0
22676;DHT22;12521;43.310;21.876;2022-07-29T02:29:06;21.8;96.0
22676;DHT22;12521;43.310;21.876;2022-07-29T02:33:52;21.8;96.0
22676;DHT22;12521;43.310;21.876;2022-07-29T02:38:34;21.8;96.0
22676;DHT22;12521;43.310;21.876;2022-07-29T02:43:17;21.8;96.0
22676;DHT22;12521;43.310;21.876;2022-07-29T02:48:06;21.8;96.0
22676;DHT22;12521;43.310;21.876;2022-07-29T02:53:01;21.8;96.0
22676;DHT22;12521;43.310;21.876;2022-07-29T02:57:59;21.7;96.0
22676;DHT22;12521;43.310;21.876;2022-07-29T03:02:57;21.7;96.0
22676;DHT22;12521;43.310;21.876;2022-07-29T03:07:57;21.7;96.0
22676;DHT22;12521;43.310;21.876;2022-07-29T03:12:46;21.7;96.0
22676;DHT22;12521;43.310;21.876;2022-07-29T03:17:26;21.7;96.0
22676;DHT22;12521;43.310;21.876;2022-07-29T03:22:06;21.7;96.0
22676;DHT22;12521;43.310;21.876;2022-07-29T03:26:44;21.8;96.0
22676;DHT22;12521;43.310;21.876;2022-07-29T03:31:21;21.8;96.0
22676;DHT22;12521;43.310;21.876;2022-07-29T03:35:57;21.8;96.0
22676;DHT22;12521;43.310;21.876;2022-07-29T03:40:38;21.8;96.0
22676;DHT22;12521;43.310;21.876;2022-07-29T03:45:33;21.8;96.0
22676;DHT22;12521;43.310;21.876;2022-07-29T03:50:14;21.7;96.0
22676;DHT22;12521;43.310;21.876;2022-07-29T03:54:52;21.7;96.0
22676;DHT22;12521;43.310;21.876;2022-07-29T03:59:32;21.6;96.0
22676;DHT22;12521;43.310;21.876;2022-07-29T04:04:12;21.6;96.0
22676;DHT22;12521;43.310;21.876;2022-07-29T04:08:50;21.6;96.0
22676;DHT22;12521;43.310;21.876;2022-07-29T04:13:27;21.6;96.0
22676;DHT22;12521;43.310;21.876;2022-07-29T04:18:05;21.5;96.0
22676;DHT22;12521;43.310;21.876;2022-07-29T04:22:41;21.5;96.0
22676;DHT22;12521;43.310;21.876;2022-07-29T04:27:18;21.5;96.0
22676;DHT22;12521;43.310;21.876;2022-07-29T04:31:55;21.5;96.0
22676;DHT22;12521;43.310;21.876;2022-07-29T04:36:33;21.5;96.0
22676;DHT22;12521;43.310;21.876;2022-07-29T04:41:10;21.5;96.0
22676;DHT22;12521;43.310;21.876;2022-07-29T04:45:47;21.5;96.0
22676;DHT22;12521;43.310;21.876;2022-07-29T04:50:25;21.6;96.0
22676;DHT22;12521;43.310;21.876;2022-07-29T04:55:05;21.6;96.0
22676;DHT22;12521;43.310;21.876;2022-07-29T04:59:45;21.6;96.0
22676;DHT22;12521;43.310;21.876;2022-07-29T05:04:22;21.6;96.0
22676;DHT22;12521;43.310;21.876;2022-07-29T05:08:59;21.6;96.0
22676;DHT22;12521;43.310;21.876;2022-07-29T05:13:36;21.6;96.0
22676;DHT22;12521;43.310;21.876;2022-07-29T05:18:12;21.7;96.0
22676;DHT22;12521;43.310;21.876;2022-07-29T05:22:48;21.7;96.0
22676;DHT22;12521;43.310;21.876;2022-07-29T05:27:24;21.8;96.0
22676;DHT22;12521;43.310;21.876;2022-07-29T05:32:01;21.8;96.0
22676;DHT22;12521;43.310;21.876;2022-07-29T05:36:41;21.8;96.0
22676;DHT22;12521;43.310;21.876;2022-07-29T05:41:17;21.9;96.0
22676;DHT22;12521;43.310;21.876;2022-07-29T05:45:53;21.9;96.0
22676;DHT22;12521;43.310;21.876;2022-07-29T05:50:31;22.2;96.0
22676;DHT22;12521;43.310;21.876;2022-07-29T05:55:08;22.2;96.0
22676;DHT22;12521;43.310;21.876;2022-07-29T05:59:46;22.5;96.0
22676;DHT22;12521;43.310;21.876;2022-07-29T06:04:26;22.5;96.0
22676;DHT22;12521;43.310;21.876;2022-07-29T06:09:02;22.6;96.0
22676;DHT22;12521;43.310;21.876;2022-07-29T06:13:39;22.6;96.0
22676;DHT22;12521;43.310;21.876;2022-07-29T06:18:15;22.8;96.0
22676;DHT22;12521;43.310;21.876;2022-07-29T06:22:52;22.8;96.0
22676;DHT22;12521;43.310;21.876;2022-07-29T06:27:28;23.1;96.0
22676;DHT22;12521;43.310;21.876;2022-07-29T06:32:05;23.1;96.0
22676;DHT22;12521;43.310;21.876;2022-07-29T06:36:41;23.1;96.0
22676;DHT22;12521;43.310;21.876;2022-07-29T06:41:18;23.4;96.0
22676;DHT22;12521;43.310;21.876;2022-07-29T06:45:54;23.4;96.0
22676;DHT22;12521;43.310;21.876;2022-07-29T06:50:31;23.7;96.0
22676;DHT22;12521;43.310;21.876;2022-07-29T06:55:08;23.7;96.0
22676;DHT22;12521;43.310;21.876;2022-07-29T06:59:45;24.0;96.0
22676;DHT22;12521;43.310;21.876;2022-07-29T07:04:23;24.0;96.0
22676;DHT22;12521;43.310;21.876;2022-07-29T07:09:00;24.2;96.0
22676;DHT22;12521;43.310;21.876;2022-07-29T07:13:39;24.2;96.0
22676;DHT22;12521;43.310;21.876;2022-07-29T07:18:16;24.3;96.0
22676;DHT22;12521;43.310;21.876;2022-07-29T07:22:54;24.3;96.0
22676;DHT22;12521;43.310;21.876;2022-07-29T07:27:31;24.6;96.0
22676;DHT22;12521;43.310;21.876;2022-07-29T07:32:08;24.6;96.0
22676;DHT22;12521;43.310;21.876;2022-07-29T07:36:46;24.6;96.0
22676;DHT22;12521;43.310;21.876;2022-07-29T07:41:23;25.0;96.0
22676;DHT22;12521;43.310;21.876;2022-07-29T07:46:01;25.0;96.0
22676;DHT22;12521;43.310;21.876;2022-07-29T07:50:39;25.4;96.0
22676;DHT22;12521;43.310;21.876;2022-07-29T07:55:16;25.4;96.0
22676;DHT22;12521;43.310;21.876;2022-07-29T07:59:54;25.8;96.0
22676;DHT22;12521;43.310;21.876;2022-07-29T08:04:31;25.8;96.0
22676;DHT22;12521;43.310;21.876;2022-07-29T08:09:09;26.2;96.0
22676;DHT22;12521;43.310;21.876;2022-07-29T08:13:45;26.2;96.0
22676;DHT22;12521;43.310;21.876;2022-07-29T08:18:21;26.5;96.0
22676;DHT22;12521;43.310;21.876;2022-07-29T08:22:58;26.5;96.0
22676;DHT22;12521;43.310;21.876;2022-07-29T08:27:35;26.8;96.0
22676;DHT22;12521;43.310;21.876;2022-07-29T08:32:11;26.8;96.0
22676;DHT22;12521;43.310;21.876;2022-07-29T08:36:47;26.8;96.0
22676;DHT22;12521;43.310;21.876;2022-07-29T08:41:24;27.1;96.0
22676;DHT22;12521;43.310;21.876;2022-07-29T08:46:02;27.1;96.0
22676;DHT22;12521;43.310;21.876;2022-07-29T08:50:39;27.4;96.0
22676;DHT22;12521;43.310;21.876;2022-07-29T08:55:21;27.4;96.0
22676;DHT22;12521;43.310;21.876;2022-07-29T09:00:00;27.7;96.0
22676;DHT22;12521;43.310;21.876;2022-07-29T09:04:44;27.7;96.0
22676;DHT22;12521;43.310;21.876;2022-07-29T09:09:23;27.9;96.0
22676;DHT22;12521;43.310;21.876;2022-07-29T09:13:59;27.9;96.0
22676;DHT22;12521;43.310;21.876;2022-07-29T09:18:37;28.1;96.0
22676;DHT22;12521;43.310;21.876;2022-07-29T09:23:22;28.1;96.0
22676;DHT22;12521;43.310;21.876;2022-07-29T09:28:05;28.5;96.0
22676;DHT22;12521;43.310;21.876;2022-07-29T09:32:58;28.5;96.0
22676;DHT22;12521;43.310;21.876;2022-07-29T09:37:40;28.9;95.0
22676;DHT22;12521;43.310;21.876;2022-07-29T09:42:27;28.9;95.0
22676;DHT22;12521;43.310;21.876;2022-07-29T09:47:06;29.2;94.0
22676;DHT22;12521;43.310;21.876;2022-07-29T09:51:44;29.2;94.0
22676;DHT22;12521;43.310;21.876;2022-07-29T09:56:38;29.2;94.0
22676;DHT22;12521;43.310;21.876;2022-07-29T10:01:27;29.5;92.0
22676;DHT22;12521;43.310;21.876;2022-07-29T10:06:07;29.5;92.0
22676;DHT22;12521;43.310;21.876;2022-07-29T10:10:48;29.9;91.0
22676;DHT22;12521;43.310;21.876;2022-07-29T10:15:27;29.9;91.0
22676;DHT22;12521;43.310;21.876;2022-07-29T10:20:20;30.3;89.0
22676;DHT22;12521;43.310;21.876;2022-07-29T10:25:04;30.3;89.0
22676;DHT22;12521;43.310;21.876;2022-07-29T10:29:45;30.6;88.0
22676;DHT22;12521;43.310;21.876;2022-07-29T10:34:29;30.6;88.0
22676;DHT22;12521;43.310;21.876;2022-07-29T10:40:11;30.8;86.0
22676;DHT22;12521;43.310;21.876;2022-07-29T10:45:30;30.8;86.0
22676;DHT22;12521;43.310;21.876;2022-07-29T10:50:08;31.2;84.0
22676;DHT22;12521;43.310;21.876;2022-07-29T10:54:47;31.2;84.0
22676;DHT22;12521;43.310;21.876;2022-07-29T10:59:26;31.7;82.0
22676;DHT22;12521;43.310;21.876;2022-07-29T11:04:02;31.7;82.0
22676;DHT22;12521;43.310;21.876;2022-07-29T11:08:39;32.2;81.0
22676;DHT22;12521;43.310;21.876;2022-07-29T11:13:45;32.2;81.0
22676;DHT22;12521;43.310;21.876;2022-07-29T11:18:26;32.7;79.0
22676;DHT22;12521;43.310;21.876;2022-07-29T11:23:21;32.7;79.0
22676;DHT22;12521;43.310;21.876;2022-07-29T11:28:10;33.0;79.0
22676;DHT22;12521;43.310;21.876;2022-07-29T11:32:57;33.0;79.0
22676;DHT22;12521;43.310;21.876;2022-07-29T11:37:34;33.4;78.0
22676;DHT22;12521;43.310;21.876;2022-07-29T11:42:44;33.4;78.0
22676;DHT22;12521;43.310;21.876;2022-07-29T11:47:26;33.5;76.0
22676;DHT22;12521;43.310;21.876;2022-07-29T11:52:04;33.5;76.0
22676;DHT22;12521;43.310;21.876;2022-07-29T11:56:42;33.5;76.0
22676;DHT22;12521;43.310;21.876;2022-07-29T12:01:24;33.6;75.0
22676;DHT22;12521;43.310;21.876;2022-07-29T12:06:01;33.6;75.0
22676;DHT22;12521;43.310;21.876;2022-07-29T12:10:50;33.9;74.0
22676;DHT22;12521;43.310;21.876;2022-07-29T12:15:29;33.9;74.0
22676;DHT22;12521;43.310;21.876;2022-07-29T12:20:07;34.2;74.0
22676;DHT22;12521;43.310;21.876;2022-07-29T12:24:46;34.2;74.0
22676;DHT22;12521;43.310;21.876;2022-07-29T12:29:24;34.5;73.0
22676;DHT22;12521;43.310;21.876;2022-07-29T12:34:03;34.5;73.0
22676;DHT22;12521;43.310;21.876;2022-07-29T12:38:41;34.8;72.0
22676;DHT22;12521;43.310;21.876;2022-07-29T12:43:22;34.8;72.0
22676;DHT22;12521;43.310;21.876;2022-07-29T12:48:03;35.1;72.0
22676;DHT22;12521;43.310;21.876;2022-07-29T12:52:46;35.1;72.0
22676;DHT22;12521;43.310;21.876;2022-07-29T12:57:25;35.4;71.0
22676;DHT22;12521;43.310;21.876;2022-07-29T13:02:06;35.4;71.0
22676;DHT22;12521;43.310;21.876;2022-07-29T13:06:59;35.4;71.0
22676;DHT22;12521;43.310;21.876;2022-07-29T13:11:44;35.6;71.0
22676;DHT22;12521;43.310;21.876;2022-07-29T13:16:28;35.6;71.0
22676;DHT22;12521;43.310;21.876;2022-07-29T13:21:14;35.9;70.0
22676;DHT22;12521;43.310;21.876;2022-07-29T13:25:52;35.9;70.0
22676;DHT22;12521;43.310;21.876;2022-07-29T13:30:28;36.3;69.0
22676;DHT22;12521;43.310;21.876;2022-07-29T13:35:07;36.3;69.0
22676;DHT22;12521;43.310;21.876;2022-07-29T13:39:45;36.7;68.0
22676;DHT22;12521;43.310;21.876;2022-07-29T13:44:22;36.7;68.0
22676;DHT22;12521;43.310;21.876;2022-07-29T13:48:58;36.8;67.0
22676;DHT22;12521;43.310;21.876;2022-07-29T13:53:34;36.8;67.0
22676;DHT22;12521;43.310;21.876;2022-07-29T13:58:11;36.8;67.0
22676;DHT22;12521;43.310;21.876;2022-07-29T14:02:47;36.8;67.0
22676;DHT22;12521;43.310;21.876;2022-07-29T14:07:23;36.8;67.0
22676;DHT22;12521;43.310;21.876;2022-07-29T14:12:00;36.8;67.0
22676;DHT22;12521;43.310;21.876;2022-07-29T14:16:36;36.8;67.0
22676;DHT22;12521;43.310;21.876;2022-07-29T14:21:13;36.7;68.0
22676;DHT22;12521;43.310;21.876;2022-07-29T14:25:49;36.7;68.0
22676;DHT22;12521;43.310;21.876;2022-07-29T14:30:27;36.8;67.0
22676;DHT22;12521;43.310;21.876;2022-07-29T14:35:04;36.8;67.0
22676;DHT22;12521;43.310;21.876;2022-07-29T14:39:43;36.9;67.0
22676;DHT22;12521;43.310;21.876;2022-07-29T14:44:19;36.9;67.0
22676;DHT22;12521;43.310;21.876;2022-07-29T14:48:56;37.0;67.0
22676;DHT22;12521;43.310;21.876;2022-07-29T14:53:33;37.0;67.0
22676;DHT22;12521;43.310;21.876;2022-07-29T14:58:09;37.1;67.0
22676;DHT22;12521;43.310;21.876;2022-07-29T15:02:46;37.1;67.0
22676;DHT22;12521;43.310;21.876;2022-07-29T15:07:25;36.8;67.0
22676;DHT22;12521;43.310;21.876;2022-07-29T15:12:02;36.8;67.0
22676;DHT22;12521;43.310;21.876;2022-07-29T15:16:42;36.8;67.0
22676;DHT22;12521;43.310;21.876;2022-07-29T15:21:19;36.6;67.0
22676;DHT22;12521;43.310;21.876;2022-07-29T15:25:56;36.6;67.0
22676;DHT22;12521;43.310;21.876;2022-07-29T15:30:34;36.8;67.0
22676;DHT22;12521;43.310;21.876;2022-07-29T15:35:12;36.8;67.0
22676;DHT22;12521;43.310;21.876;2022-07-29T15:39:49;36.9;67.0
22676;DHT22;12521;43.310;21.876;2022-07-29T15:44:26;36.9;67.0
22676;DHT22;12521;43.310;21.876;2022-07-29T15:49:05;37.0;67.0
22676;DHT22;12521;43.310;21.876;2022-07-29T15:53:43;37.0;67.0
22676;DHT22;12521;43.310;21.876;2022-07-29T15:58:19;37.1;67.0
22676;DHT22;12521;43.310;21.876;2022-07-29T16:02:56;37.1;67.0
22676;DHT22;12521;43.310;21.876;2022-07-29T16:07:32;37.4;67.0
22676;DHT22;12521;43.310;21.876;2022-07-29T16:12:08;37.4;67.0
22676;DHT22;12521;43.310;21.876;2022-07-29T16:16:44;37.4;67.0
22676;DHT22;12521;43.310;21.876;2022-07-29T16:21:21;37.8;67.0
22676;DHT22;12521;43.310;21.876;2022-07-29T16:25:57;37.8;67.0
22676;DHT22;12521;43.310;21.876;2022-07-29T16:30:34;38.3;66.0
22676;DHT22;12521;43.310;21.876;2022-07-29T16:35:12;38.3;66.0
22676;DHT22;12521;43.310;21.876;2022-07-29T16:39:48;38.9;65.0
22676;DHT22;12521;43.310;21.876;2022-07-29T16:44:24;38.9;65.0
22676;DHT22;12521;43.310;21.876;2022-07-29T16:49:01;38.7;65.0
22676;DHT22;12521;43.310;21.876;2022-07-29T16:53:38;38.7;65.0
22676;DHT22;12521;43.310;21.876;2022-07-29T16:58:14;38.5;66.0
22676;DHT22;12521;43.310;21.876;2022-07-29T17:02:51;38.5;66.0
22676;DHT22;12521;43.310;21.876;2022-07-29T17:07:27;37.8;67.0
22676;DHT22;12521;43.310;21.876;2022-07-29T17:12:04;37.8;67.0
22676;DHT22;12521;43.310;21.876;2022-07-29T17:16:43;37.8;67.0
22676;DHT22;12521;43.310;21.876;2022-07-29T17:21:19;37.0;68.0
22676;DHT22;12521;43.310;21.876;2022-07-29T17:26:00;37.0;68.0
22676;DHT22;12521;43.310;21.876;2022-07-29T17:30:37;35.5;71.0
22676;DHT22;12521;43.310;21.876;2022-07-29T17:35:13;35.5;71.0
22676;DHT22;12521;43.310;21.876;2022-07-29T17:39:50;34.0;74.0
22676;DHT22;12521;43.310;21.876;2022-07-29T17:44:26;34.0;74.0
22676;DHT22;12521;43.310;21.876;2022-07-29T17:49:04;33.2;76.0
22676;DHT22;12521;43.310;21.876;2022-07-29T17:53:42;33.2;76.0
22676;DHT22;12521;43.310;21.876;2022-07-29T17:58:19;32.5;78.0
22676;DHT22;12521;43.310;21.876;2022-07-29T18:02:57;32.5;78.0
22676;DHT22;12521;43.310;21.876;2022-07-29T18:07:34;32.0;79.0
22676;DHT22;12521;43.310;21.876;2022-07-29T18:12:11;32.0;79.0
22676;DHT22;12521;43.310;21.876;2022-07-29T18:16:48;32.0;79.0
22676;DHT22;12521;43.310;21.876;2022-07-29T18:21:24;31.5;81.0
22676;DHT22;12521;43.310;21.876;2022-07-29T18:26:02;31.5;81.0
22676;DHT22;12521;43.310;21.876;2022-07-29T18:30:40;31.3;82.0
22676;DHT22;12521;43.310;21.876;2022-07-29T18:35:17;31.3;82.0
22676;DHT22;12521;43.310;21.876;2022-07-29T18:39:54;31.1;82.0
22676;DHT22;12521;43.310;21.876;2022-07-29T18:44:31;31.1;82.0
22676;DHT22;12521;43.310;21.876;2022-07-29T18:49:08;31.0;83.0
22676;DHT22;12521;43.310;21.876;2022-07-29T18:53:44;31.0;83.0
22676;DHT22;12521;43.310;21.876;2022-07-29T18:58:20;30.8;84.0
22676;DHT22;12521;43.310;21.876;2022-07-29T19:02:56;30.8;84.0
22676;DHT22;12521;43.310;21.876;2022-07-29T19:07:33;30.6;85.0
22676;DHT22;12521;43.310;21.876;2022-07-29T19:12:10;30.6;85.0
22676;DHT22;12521;43.310;21.876;2022-07-29T19:16:47;30.6;85.0
22676;DHT22;12521;43.310;21.876;2022-07-29T19:21:24;30.3;85.0
22676;DHT22;12521;43.310;21.876;2022-07-29T19:26:00;30.3;85.0
22676;DHT22;12521;43.310;21.876;2022-07-29T19:30:37;30.1;86.0
22676;DHT22;12521;43.310;21.876;2022-07-29T19:35:13;30.1;86.0
22676;DHT22;12521;43.310;21.876;2022-07-29T19:39:50;29.9;87.0
22676;DHT22;12521;43.310;21.876;2022-07-29T19:44:26;29.9;87.0
22676;DHT22;12521;43.310;21.876;2022-07-29T19:49:02;29.8;88.0
22676;DHT22;12521;43.310;21.876;2022-07-29T19:53:39;29.8;88.0
22676;DHT22;12521;43.310;21.876;2022-07-29T19:58:15;29.6;88.0
22676;DHT22;12521;43.310;21.876;2022-07-29T20:02:51;29.6;88.0
22676;DHT22;12521;43.310;21.876;2022-07-29T20:07:28;29.4;88.0
22676;DHT22;12521;43.310;21.876;2022-07-29T20:12:05;29.4;88.0
22676;DHT22;12521;43.310;21.876;2022-07-29T20:16:46;29.4;88.0
22676;DHT22;12521;43.310;21.876;2022-07-29T20:21:24;29.2;87.0
22676;DHT22;12521;43.310;21.876;2022-07-29T20:26:02;29.2;87.0
22676;DHT22;12521;43.310;21.876;2022-07-29T20:30:39;29.0;86.0
22676;DHT22;12521;43.310;21.876;2022-07-29T20:35:17;29.0;86.0
22676;DHT22;12521;43.310;21.876;2022-07-29T20:39:54;28.9;86.0
22676;DHT22;12521;43.310;21.876;2022-07-29T20:44:31;28.9;86.0
22676;DHT22;12521;43.310;21.876;2022-07-29T20:49:10;28.8;86.0
22676;DHT22;12521;43.310;21.876;2022-07-29T20:53:47;28.8;86.0
22676;DHT22;12521;43.310;21.876;2022-07-29T20:58:25;28.6;86.0
22676;DHT22;12521;43.310;21.876;2022-07-29T21:03:02;28.6;86.0
22676;DHT22;12521;43.310;21.876;2022-07-29T21:07:39;28.5;86.0
22676;DHT22;12521;43.310;21.876;2022-07-29T21:12:16;28.5;86.0
22676;DHT22;12521;43.310;21.876;2022-07-29T21:16:53;28.5;86.0
22676;DHT22;12521;43.310;21.876;2022-07-29T21:21:29;28.4;86.0
22676;DHT22;12521;43.310;21.876;2022-07-29T21:26:05;28.4;86.0
22676;DHT22;12521;43.310;21.876;2022-07-29T21:30:43;28.3;86.0
22676;DHT22;12521;43.310;21.876;2022-07-29T21:35:19;28.3;86.0
22676;DHT22;12521;43.310;21.876;2022-07-29T21:39:56;28.2;87.0
22676;DHT22;12521;43.310;21.876;2022-07-29T21:44:33;28.2;87.0
22676;DHT22;12521;43.310;21.876;2022-07-29T21:49:09;28.0;87.0
22676;DHT22;12521;43.310;21.876;2022-07-29T21:53:45;28.0;87.0
22676;DHT22;12521;43.310;21.876;2022-07-29T21:58:22;27.8;88.0
22676;DHT22;12521;43.310;21.876;2022-07-29T22:02:59;27.8;88.0
22676;DHT22;12521;43.310;21.876;2022-07-29T22:07:41;27.7;89.0
22676;DHT22;12521;43.310;21.876;2022-07-29T22:12:17;27.7;89.0
22676;DHT22;12521;43.310;21.876;2022-07-29T22:16:53;27.7;89.0
22676;DHT22;12521;43.310;21.876;2022-07-29T22:21:30;27.6;89.0
22676;DHT22;12521;43.310;21.876;2022-07-29T22:26:07;27.6;89.0
22676;DHT22;12521;43.310;21.876;2022-07-29T22:30:43;27.4;90.0
22676;DHT22;12521;43.310;21.876;2022-07-29T22:35:19;27.4;90.0
22676;DHT22;12521;43.310;21.876;2022-07-29T22:39:55;27.3;90.0
22676;DHT22;12521;43.310;21.876;2022-07-29T22:44:32;27.3;90.0
22676;DHT22;12521;43.310;21.876;2022-07-29T22:49:09;27.0;91.0
22676;DHT22;12521;43.310;21.876;2022-07-29T22:53:46;27.0;91.0
22676;DHT22;12521;43.310;21.876;2022-07-29T22:58:22;26.7;92.0
22676;DHT22;12521;43.310;21.876;2022-07-29T23:02:59;26.7;92.0
22676;DHT22;12521;43.310;21.876;2022-07-29T23:07:36;26.4;93.0
22676;DHT22;12521;43.310;21.876;2022-07-29T23:12:13;26.4;93.0
22676;DHT22;12521;43.310;21.876;2022-07-29T23:16:50;26.4;93.0
22676;DHT22;12521;43.310;21.876;2022-07-29T23:21:27;26.1;94.0
22676;DHT22;12521;43.310;21.876;2022-07-29T23:26:04;26.1;94.0
22676;DHT22;12521;43.310;21.876;2022-07-29T23:30:41;26.0;95.0
22676;DHT22;12521;43.310;21.876;2022-07-29T23:35:19;26.0;95.0
22676;DHT22;12521;43.310;21.876;2022-07-29T23:39:58;25.8;96.0
22676;DHT22;12521;43.310;21.876;2022-07-29T23:44:36;25.8;96.0
22676;DHT22;12521;43.310;21.876;2022-07-29T23:49:14;25.8;96.0
22676;DHT22;12521;43.310;21.876;2022-07-29T23:53:51;25.8;96.0
22676;DHT22;12521;43.310;21.876;2022-07-29T23:58:28;25.7;96.0
